Portada
METAR-TAF:

METAR-TAF

Aeropuertos :

Aeropuerto Internacional Rey Khalid

Riad, Arabia Saudita

latitud: 24-56N, longitud: 046-43E, altitud: 614 m

Observación

El informe se hizo hace 1 hora y 9 minutos, a las 02:00 UTC
Viento calma
Temperatura 12°C
Humedad 58%
Presión 1019 hPa
Visibilidad 10 km o más
sin nubes por debajo de 1500 m y sin presencia de cumulonimbus.

METAR: OERK 250200Z 00000KT CAVOK 12/04 Q1019 NOSIG

Hora: 06:09 (03:09 UTC)

Pronóstico

El informe se hizo hace 4 horas y 9 minutos, a las 23:00 UTC
Pronóstico válido del 25 a las 00 UTC al 26 a las 06 UTC
Viento 3 kt con dirección variable
Visibilidad 10 km o más
sin nubes por debajo de 1500 m y sin presencia de cumulonimbus.
Evolucionando progresivamente
del 25 a las 06 UTC al 25 a las 08 UTC
Viento 14 kt del sur

TAF: OERK 242300Z 2500/2606 VRB03KT CAVOK BECMG 2506/2508 17014KT

Observaciones y pronósticos meteorológicos de más de 4000 aeropuertos (mensajes METAR y TAF).

Los puntos amarillos y rojos representan las estaciones disponibles.

Ponga el ratón en el punto deseado para ver el nombre de la estación.

Haga clic para ver las observaciones y los pronósticos meteorológicos.

Para cambiar el mapa : haga clic en los botones verdes con una cruz de color negro para hacer un zoom, en el botón verde con un guión para alejar o en las flechas verdes para mapas adyacentes.


METAR-TAF: